Armstrong, Florida
Current Conditions -  °F | °C
As of 1:58 PM on Thursday 23 Oct 2014 (Local Time) from KSGJ Reporting Station
Broken Clouds Broken Clouds  
Wind Chill: 74°   Ceiling: 4400
Heat Index: 74°   Visibility: 10mi
Dew Point: 56°   Wind: 13mph
Humidity: 53%   Direction: 40°NE
Pressure: 30.03"   Gusts: 17mph
Location:  29.7919°N, 81.4499°W
Report Text: KSGJ 231758Z 04011G15KT 10SM BKN044 23/13 A3003 RMK AO2 SLP169 T02330133 10233 20133 58013
Loading
Personal Weather Stations






























Interactive Weather Map
Tropical Storm Tracking
New forecast layout! Learn more

10-Day Weather Forecast

Advertisements
Track Severe Weather on mobile